Weather forecast for Bulen (Булен)

Russia, 519 m
N52.847, E104.807


Sounding

Red line — air temperature ˚C.
Blue line — thermal bubble temperature ˚C.
Green line — dew point temperature ˚C.
Wind speed is in meters per second.

Table forecast

GFS 0.25˚ model

temp. wind gust humid. clouds prec. press. hpbl
Mon10 00:00 18 320.0 nw 4 11 63 100 0.1 1005 407
03:00 16 329.0 nnw 3 8 77 100 0.3 1005 227
06:00 14 280.0 w 3 5 83 100 0.0 1005 105
09:00 16 283.0 wnw 3 6 74 100 0.0 1006 287
12:00 22 266.0 w 2 4 55 70 0.0 1005 1023
15:00 24 303.0 wnw 3 4 44 81 0.1 1004 2068
18:00 23 306.0 nw 4 7 52 100 0.1 1004 848
21:00 19 317.0 nw 3 7 61 98 0.1 1005 148
 
Tue11 00:00 16 257.0 wsw 1 1 73 45 0.0 1006 23
03:00 14 197.0 ssw 2 2 87 55 0.0 1007 57
06:00 14 199.0 ssw 2 2 85 100 0.0 1006 55
09:00 16 204.0 ssw 2 3 79 93 0.0 1007 195
12:00 21 207.0 ssw 2 2 61 19 0.0 1006 528
15:00 25 218.0 sw 1 2 42 10 0.0 1005 1374
18:00 25 328.0 nnw 1 1 39 36 0.0 1005 1244
21:00 20 107.0 ese 3 4 64 57 0.0 1006 74
 
Wed12 00:00 14 99.0 e 1 1 73 60 0.0 1007 23
03:00 14 72.0 ene 2 2 71 80 0.0 1007 23
06:00 12 85.0 e 1 2 78 36 0.0 1006 22
09:00 16 85.0 e 2 2 69 18 0.0 1007 215
12:00 22 144.0 se 2 3 59 0 0.0 1006 819
15:00 26 189.0 s 2 3 48 0 0.0 1004 1475
18:00 26 133.0 se 3 3 46 19 0.0 1003 1850
21:00 20 164.0 sse 3 3 72 35 0.0 1004 72
 
Thu13 00:00 15 214.0 sw 1 1 86 38 0.0 1004 23
03:00 13 114.0 ese 1 1 88 19 0.0 1004 23
06:00 12 67.0 ene 1 1 90 0 0.0 1003 23
09:00 16 79.0 e 1 1 78 0 0.0 1003 162
12:00 22 222.0 sw 1 0 60 0 0.0 1002 521
15:00 25 249.0 wsw 2 3 50 43 0.0 1000 1274
18:00 26 238.0 wsw 1 2 51 80 0.0 999 896
21:00 21 1.0 n 1 1 63 50 0.0 1000 23
 
Fri14 00:00 15 121.0 ese 0 1 84 0 0.1 1001 23
03:00 14 175.0 s 0 1 88 0 0.1 1000 23
06:00 12 214.0 sw 1 1 90 11 0.0 1001 23
09:00 16 212.0 ssw 1 1 80 18 0.0 1001 140
12:00 22 262.0 w 1 2 61 86 0.0 1000 589
15:00 26 182.0 s 2 2 46 57 0.0 999 1499
18:00 25 331.0 nnw 0 2 48 62 0.0 1000 1152
21:00 22 336.0 nnw 3 5 57 79 0.0 1002 124
 

0.017 s